Latest Weather Observations for Coffs Harbour

IDN60801

Issued at 12:05 pm EST Sunday 31 August 2014 (issued every 30 minutes, with the page automatically refreshed every 10 minutes)

About weather observations | Map of weather stations | Latest weather observations for NSW | Other Formats
Station Details ID: 059040 Name: COFFS HARBOUR MO Lat: -30.31 Lon: 153.12 Height: 5.0 m
Data from the previous 72 hours. | See also: Recent months at Coffs Harbour
Date/Time
EST
Temp
°C
App
Temp
°C
Dew
Point
Rel
Hum
%
Delta-T
°C
Wind Press
QNH
hPa
Press
MSL
hPa
Rain
since 9 am
mm
Dir
 
Spd
km/h
Gust
km/h
Spd
kts
Gust
kts
31/12:00pm 21.0 17.6 12.5 58 4.8 S 22 28 12 15 1017.5 1017.6 0.0
31/11:30am 20.2 16.2 11.7 58 4.7 S 24 30 13 16 1018.0 - 0.0
31/11:00am 20.8 16.5 12.2 58 4.8 S 26 33 14 18 1018.2 - 0.0
31/10:30am 20.5 16.0 11.4 56 5.0 S 26 33 14 18 1018.6 - 0.0
31/10:00am 20.5 15.8 10.5 52 5.4 S 26 32 14 17 1018.8 - 0.0
31/09:30am 19.6 14.4 10.1 54 5.1 SSW 28 41 15 22 1018.9 - 0.0
31/09:00am 19.5 14.2 9.9 54 5.1 SW 28 39 15 21 1019.0 1019.1 0.0
31/08:30am 19.0 14.8 9.7 54 4.9 SW 22 30 12 16 1019.2 - 0.0
31/08:00am 18.3 15.1 10.0 58 4.4 SW 17 24 9 13 1019.2 - 0.0
31/07:30am 17.2 14.8 10.0 62 3.8 WSW 13 17 7 9 1019.1 - 0.0
31/07:00am 15.9 13.8 9.7 66 3.2 SW 11 15 6 8 1019.0 - 0.0
31/06:30am 14.4 12.3 9.7 73 2.4 SW 11 13 6 7 1018.7 - 0.0
31/06:00am 14.0 12.2 9.5 74 2.3 SW 9 15 5 8 1018.3 1018.4 0.0
31/05:30am 14.6 11.7 9.5 71 2.6 WSW 15 19 8 10 1017.9 - 0.0
31/05:00am 14.9 12.3 9.2 68 2.9 SW 13 17 7 9 1017.8 - 0.0
31/04:30am 15.1 12.5 9.2 68 3.0 SW 13 17 7 9 1017.7 - 0.0
31/04:00am 15.5 12.5 9.3 66 3.2 SW 15 20 8 11 1017.6 - 0.0
31/03:30am 15.2 12.7 9.6 69 2.9 SW 13 15 7 8 1017.6 - 0.0
31/03:00am 15.6 13.4 9.4 66 3.2 WSW 11 15 6 8 1017.5 1017.6 0.0
31/02:30am 15.4 12.9 9.6 68 3.0 WSW 13 19 7 10 1017.6 - 0.0
31/02:00am 15.6 12.7 9.6 67 3.1 SW 15 19 8 10 1017.7 - 0.0
31/01:30am 16.0 13.0 9.4 65 3.4 SW 15 17 8 9 1017.8 - 0.0
31/01:00am 16.6 12.9 9.5 63 3.7 SW 19 26 10 14 1018.1 - 0.0
31/12:30am 16.6 13.0 9.9 64 3.5 SSW 19 26 10 14 1018.2 - 0.0
31/12:00am 16.9 13.6 9.6 62 3.8 SW 17 24 9 13 1018.4 1018.5 0.0
 
Date/Time
EST
Temp
°C
App
Temp
°C
Dew
Point
Rel
Hum
%
Delta-T
°C
Wind Press
QNH
hPa
Press
MSL
hPa
Rain
since 9 am
mm
Dir
 
Spd
km/h
Gust
km/h
Spd
kts
Gust
kts
30/11:30pm 16.8 13.6 9.9 64 3.6 SW 17 26 9 14 1018.5 - 0.0
30/11:00pm 16.5 13.8 10.5 67 3.2 WSW 15 19 8 10 1018.6 - 0.0
30/10:30pm 16.3 14.7 10.2 67 3.2 WSW 9 13 5 7 1018.7 - 0.0
30/10:00pm 16.0 14.1 10.5 70 2.9 SW 11 15 6 8 1018.6 - 0.0
30/09:30pm 15.9 14.0 10.6 71 2.8 SW 11 11 6 6 1018.6 - 0.0
30/09:00pm 15.8 13.9 10.5 71 2.8 SW 11 13 6 7 1018.6 1018.7 0.0
30/08:30pm 14.9 13.4 10.7 76 2.2 WSW 9 11 5 6 1018.7 - 0.0
30/08:00pm 15.0 13.2 10.8 76 2.2 SW 11 11 6 6 1018.5 - 0.0
30/07:30pm 16.1 13.4 10.4 69 3.0 SW 15 17 8 9 1018.4 - 0.0
30/07:00pm 16.9 13.4 10.3 65 3.5 SSW 19 26 10 14 1018.2 - 0.0
30/06:30pm 17.1 13.6 10.3 64 3.6 SSW 19 24 10 13 1018.1 - 0.0
30/06:00pm 17.4 14.3 10.4 63 3.7 SW 17 20 9 11 1017.9 1018.0 0.0
30/05:30pm 18.2 14.2 10.3 60 4.2 SSW 22 28 12 15 1017.8 - 0.0
30/05:00pm 19.0 15.1 10.7 58 4.5 SSW 22 30 12 16 1017.5 - 0.0
30/04:30pm 19.9 14.8 10.5 54 5.1 SW 28 35 15 19 1017.2 - 0.0
30/04:00pm 19.8 15.5 10.6 55 5.0 SW 24 30 13 16 1017.1 - 0.0
30/03:30pm 20.6 15.4 10.2 51 5.6 SW 28 37 15 20 1017.0 - 0.0
30/03:00pm 21.0 15.8 10.3 50 5.8 SW 28 39 15 21 1016.9 1017.0 0.0
30/02:30pm 20.6 15.0 10.0 50 5.7 SSW 30 39 16 21 1017.1 - 0.0
30/02:00pm 20.8 15.6 10.3 51 5.7 SW 28 41 15 22 1017.2 - 0.0
30/01:30pm 21.0 15.4 10.3 50 5.8 SW 30 39 16 21 1017.4 - 0.0
30/01:00pm 21.0 14.9 10.5 51 5.7 SW 33 46 18 25 1017.7 - 0.0
30/12:30pm 20.7 15.6 10.6 52 5.5 SW 28 39 15 21 1018.1 - 0.0
30/12:00pm 20.7 15.7 10.8 53 5.4 SW 28 41 15 22 1018.3 1018.4 0.0
30/11:30am 19.7 14.2 10.6 55 4.9 SW 30 43 16 23 1018.7 - 0.0
30/11:00am 19.7 14.2 10.4 55 5.0 SW 30 37 16 20 1018.9 - 0.0
30/10:30am 18.7 13.8 10.0 57 4.6 SW 26 39 14 21 1019.1 - 0.0
30/10:00am 18.4 14.7 10.1 58 4.4 SW 20 30 11 16 1019.2 - 0.0
30/09:30am 19.2 14.2 9.5 53 5.1 SW 26 39 14 21 1018.9 - 0.0
30/09:09am 18.3 12.8 9.3 55 4.7 SW 28 46 15 25 1019.1 - 0.0
30/09:00am 18.7 12.8 9.1 53 5.0 SW 30 39 16 21 1019.1 1019.2 0.0
30/08:30am 17.7 12.5 9.0 56 4.5 WSW 26 43 14 23 1019.1 - 0.0
30/08:00am 16.8 12.4 7.6 54 4.6 WSW 20 28 11 15 1019.1 - 0.0
30/07:30am 16.0 11.5 7.1 55 4.4 SW 20 28 11 15 1019.0 - 0.0
30/07:00am 15.5 10.1 6.2 54 4.5 WSW 24 32 13 17 1018.5 - 0.0
30/06:30am 14.7 9.6 5.9 55 4.2 WSW 22 33 12 18 1018.4 - 0.0
30/06:00am 14.7 8.7 5.4 53 4.4 SW 26 37 14 20 1018.0 1018.1 0.0
30/05:30am 14.6 8.5 5.0 52 4.5 WSW 26 37 14 20 1017.7 - 0.0
30/05:00am 14.5 8.7 4.6 51 4.6 WSW 24 32 13 17 1017.5 - 0.0
30/04:30am 14.4 7.8 4.1 50 4.7 SW 28 35 15 19 1017.2 - 0.0
30/04:00am 14.6 7.9 3.9 48 4.9 WSW 28 37 15 20 1017.1 - 0.0
30/03:30am 14.3 8.3 3.4 48 4.9 SW 24 32 13 17 1017.2 - 0.0
30/03:00am 14.3 8.3 3.1 47 5.0 WSW 24 33 13 18 1017.3 1017.4 0.0
30/02:30am 14.5 9.2 3.1 46 5.1 SW 20 32 11 17 1017.6 - 0.0
30/02:00am 14.4 9.2 2.7 45 5.2 WSW 19 30 10 16 1017.8 - 0.0
30/01:30am 14.2 8.9 3.0 47 5.0 WSW 20 32 11 17 1018.2 - 0.0
30/01:00am 14.3 8.6 2.8 46 5.1 WSW 22 33 12 18 1018.5 - 0.0
30/12:30am 14.3 8.3 3.4 48 4.9 WSW 24 41 13 22 1019.0 - 0.0
30/12:00am 13.3 9.3 4.8 56 3.9 WSW 15 20 8 11 1019.5 1019.6 0.0
 
Date/Time
EST
Temp
°C
App
Temp
°C
Dew
Point
Rel
Hum
%
Delta-T
°C
Wind Press
QNH
hPa
Press
MSL
hPa
Rain
since 9 am
mm
Dir
 
Spd
km/h
Gust
km/h
Spd
kts
Gust
kts
29/11:30pm 12.1 7.9 5.9 66 2.9 WSW 17 24 9 13 1019.8 - 0.0
29/11:00pm 12.3 7.7 6.4 67 2.8 WSW 20 28 11 15 1020.2 - 0.0
29/10:30pm 11.8 9.1 7.2 73 2.2 WSW 11 17 6 9 1020.2 - 0.0
29/10:00pm 12.7 9.5 6.8 67 2.8 W 13 17 7 9 1020.3 - 0.0
29/09:30pm 13.0 10.1 6.7 65 3.0 W 11 13 6 7 1020.5 - 0.0
29/09:00pm 13.2 10.1 7.2 67 2.9 WSW 13 15 7 8 1020.7 1020.8 0.0
29/08:30pm 14.5 9.4 6.1 57 4.0 SW 22 33 12 18 1021.0 - 0.0
29/08:05pm 14.5 8.4 6.4 58 3.9 SSW 28 46 15 25 1021.1 - 0.0
29/08:00pm 14.5 9.5 6.4 58 3.9 SSW 22 35 12 19 1021.1 - 0.0
29/07:30pm 14.0 10.3 6.2 59 3.7 WSW 15 19 8 10 1021.1 - 0.0
29/07:00pm 13.2 11.2 7.0 66 3.0 SW 7 9 4 5 1020.9 - 0.0
29/06:30pm 14.2 10.9 6.5 60 3.7 SW 13 20 7 11 1020.8 - 0.0
29/06:00pm 15.7 11.9 5.6 51 4.8 SW 15 17 8 9 1020.4 1020.5 0.0
29/05:30pm 16.3 11.4 5.1 47 5.3 SSW 20 30 11 16 1020.1 - 0.0
29/05:00pm 17.0 12.0 4.7 44 5.8 SSW 20 28 11 15 1019.9 - 0.0
29/04:30pm 17.6 10.8 5.3 44 5.9 SW 30 37 16 20 1019.9 - 0.0
29/04:00pm 18.2 11.0 4.8 41 6.4 SW 32 41 17 22 1019.9 - 0.0
29/03:30pm 17.9 10.5 4.9 42 6.2 SW 33 46 18 25 1019.9 - 0.0
29/03:00pm 19.2 12.5 5.5 40 6.7 SSW 30 41 16 22 1019.8 1019.9 0.0
29/02:30pm 19.3 12.0 5.3 39 6.8 SW 33 44 18 24 1019.9 - 0.0
29/02:00pm 19.1 11.7 3.8 36 7.2 SW 32 46 17 25 1020.3 - 0.0
29/01:30pm 19.5 12.0 4.5 37 7.2 SW 33 44 18 24 1020.4 - 0.0
29/01:11pm 19.4 11.4 4.0 36 7.3 SW 35 41 19 22 1020.5 - 0.0
29/01:00pm 19.0 10.3 4.0 37 7.1 S 39 50 21 27 1020.6 - 0.0
29/12:30pm 19.4 11.7 3.4 34 7.5 S 33 48 18 26 1021.0 - 0.0
29/12:00pm 19.2 11.2 4.0 36 7.2 S 35 50 19 27 1021.5 1021.6 0.0
29/11:30am 18.8 10.7 5.1 40 6.6 SSW 37 54 20 29 1021.8 - 0.0
29/11:23am 18.7 11.0 5.3 41 6.5 SW 35 54 19 29 1022.0 - 0.0
29/11:00am 18.0 10.1 4.2 40 6.5 SW 35 52 19 28 1022.3 - 0.0
29/10:27am 17.9 9.9 5.7 44 5.9 SSW 37 56 20 30 1022.6 - 0.0
29/10:00am 17.5 10.0 6.3 47 5.5 SW 35 48 19 26 1022.8 - 0.0
29/09:30am 17.0 9.8 6.1 48 5.3 SW 33 46 18 25 1023.1 - 0.0
29/09:00am 16.3 10.0 5.9 50 5.0 SW 28 37 15 20 1023.5 1023.6 0.6
29/08:30am 15.7 9.7 5.4 50 4.9 WSW 26 35 14 19 1023.7 - 0.6
29/08:00am 14.4 9.6 4.9 53 4.4 WSW 19 35 10 19 1023.7 - 0.6
29/07:30am 14.4 9.5 4.9 53 4.4 WSW 20 28 11 15 1023.5 - 0.6
29/07:00am 14.2 9.5 5.2 54 4.2 WSW 19 28 10 15 1023.3 - 0.6
29/06:30am 13.6 8.6 4.7 55 4.1 WSW 20 28 11 15 1023.2 - 0.6
29/06:00am 13.6 8.8 4.4 53 4.2 WSW 19 26 10 14 1022.8 1022.9 0.6
29/05:30am 13.6 8.9 5.2 57 3.9 WSW 19 28 10 15 1022.6 - 0.6
29/05:00am 13.5 8.9 5.6 59 3.7 WSW 19 28 10 15 1022.6 - 0.6
29/04:30am 13.9 8.7 5.6 57 3.9 WSW 22 32 12 17 1022.4 - 0.6
29/04:00am 14.4 9.2 5.7 56 4.1 WSW 22 30 12 16 1022.4 - 0.6
29/03:30am 14.5 8.6 5.9 56 4.1 SW 26 33 14 18 1022.2 - 0.6
29/03:00am 14.1 9.8 6.9 62 3.5 WSW 19 26 10 14 1022.2 1022.3 0.6
29/02:30am 13.9 10.4 7.1 63 3.3 WSW 15 22 8 12 1022.3 - 0.6
29/02:00am 14.2 9.1 7.7 65 3.2 SW 24 41 13 22 1022.4 - 0.6
29/01:30am 14.0 8.6 8.2 68 2.9 SW 26 39 14 21 1022.6 - 0.6
29/01:00am 13.9 8.5 7.8 66 3.0 SW 26 35 14 19 1023.0 - 0.6
29/12:30am 13.9 8.8 7.8 66 3.0 SW 24 35 13 19 1023.0 - 0.6
29/12:00am 13.8 9.2 8.1 68 2.8 SW 22 30 12 16 1023.1 1023.2 0.6
 
Date/Time
EST
Temp
°C
App
Temp
°C
Dew
Point
Rel
Hum
%
Delta-T
°C
Wind Press
QNH
hPa
Press
MSL
hPa
Rain
since 9 am
mm
Dir
 
Spd
km/h
Gust
km/h
Spd
kts
Gust
kts
28/11:30pm 13.8 9.3 8.4 70 2.7 SW 22 30 12 16 1023.4 - 0.6
28/11:00pm 13.3 8.5 8.9 74 2.2 SW 24 39 13 21 1023.4 - 0.4
28/10:30pm 14.1 9.8 8.0 66 3.0 WSW 20 28 11 15 1023.3 - 0.2
28/10:00pm 14.6 10.4 8.2 65 3.2 WSW 20 33 11 18 1023.5 - 0.2
28/09:30pm 14.7 10.5 8.1 64 3.3 WSW 20 28 11 15 1023.6 - 0.2
28/09:00pm 14.9 11.0 8.8 67 3.1 WSW 19 26 10 14 1023.5 1023.6 0.2
28/08:30pm 14.5 10.7 9.0 69 2.8 WSW 19 26 10 14 1023.2 - 0.2
28/08:00pm 14.6 10.3 9.3 70 2.7 WSW 22 33 12 18 1023.0 - 0.2
28/07:30pm 14.5 11.0 10.1 75 2.3 SW 19 26 10 14 1023.2 - 0.2
28/07:00pm 14.8 11.2 10.0 73 2.5 WSW 19 24 10 13 1023.0 - 0.2
28/06:30pm 15.3 11.2 10.1 71 2.7 SW 22 32 12 17 1022.7 - 0.2
28/06:00pm 15.0 11.6 10.4 74 2.4 WSW 19 26 10 14 1022.3 1022.4 0.2
28/05:30pm 15.6 11.9 10.0 69 2.9 WSW 20 26 11 14 1022.0 - 0.2
28/05:00pm 16.5 10.5 10.2 66 3.3 SSW 32 44 17 24 1021.6 - 0.2
28/04:25pm 17.7 9.6 10.1 61 4.0 S 43 65 23 35 1021.0 - 0.2
28/04:00pm 17.8 11.0 10.5 62 3.9 S 37 48 20 26 1020.6 - 0.2
28/03:30pm 18.5 11.3 10.7 60 4.2 S 39 54 21 29 1020.3 - 0.2
28/03:00pm 18.5 10.9 10.5 59 4.3 S 41 54 22 29 1020.4 1020.5 0.2
28/02:32pm 18.7 12.7 12.2 66 3.6 S 35 54 19 29 1020.2 - 0.2
28/02:30pm 18.8 12.7 11.9 64 3.8 S 35 43 19 23 1020.2 - 0.2
28/02:07pm 18.0 10.7 10.1 60 4.2 S 39 57 21 31 1020.5 - 0.2
28/02:00pm 17.2 11.8 12.9 76 2.4 S 33 46 18 25 1020.6 - 0.2
28/01:30pm 18.1 10.3 11.3 64 3.7 S 43 57 23 31 1020.6 - 0.2
28/01:19pm 17.8 11.3 11.8 68 3.3 SSW 37 57 20 31 1020.3 - 0.2
28/01:14pm 17.7 11.2 11.6 67 3.3 SSW 37 46 20 25 1020.3 - 0.2
28/01:00pm 19.3 13.0 12.3 64 3.9 S 37 50 20 27 1020.3 - 0.2
28/12:30pm 18.7 12.0 10.9 60 4.2 S 37 52 20 28 1020.4 - 0.2

Other Formats:

Comma delimited format used in spreadsheet applications
http://www.bom.gov.au/fwo/IDN60801/IDN60801.94791.axf

JavaScript Object Notation format (JSON) in row-major order
http://www.bom.gov.au/fwo/IDN60801/IDN60801.94791.json